Time;durP1;ratioP1;P1;durP2;ratioP2;P2;SDS_P1;SDS_P2;PMS_P1;PMS_P2;Temp;Humidity;BMP_temperature;BMP_pressure;BME280_temperature;BME280_humidity;BME280_pressure;Samples;Min_cycle;Max_cycle;Signal;HPM_P1;HPM_P2
2022/07/03 00:01:33;;;;;;;;;;;20.70;96.80;;;;;;5093923;28;20028;-67
2022/07/03 00:03:59;;;;;;;4.35;1.50;;;20.70;97.40;;;;;;5093439;28;20353;-67
2022/07/03 00:06:26;;;;;;;2.72;1.60;;;20.60;97.80;;;;;;5093805;28;20093;-66
2022/07/03 00:08:52;;;;;;;4.20;1.50;;;20.50;98.30;;;;;;5093720;28;20532;-66
2022/07/03 00:11:20;;;;;;;3.78;1.52;;;20.50;98.80;;;;;;5094063;28;20489;-67
2022/07/03 00:13:46;;;;;;;3.42;1.60;;;20.50;99.20;;;;;;5093628;28;20031;-66
2022/07/03 00:16:11;;;;;;;2.70;1.55;;;20.50;99.50;;;;;;5094011;28;20024;-66
2022/07/03 00:18:37;;;;;;;3.38;1.80;;;20.40;99.90;;;;;;5094382;28;20028;-66
2022/07/03 00:21:04;;;;;;;3.97;2.38;;;20.40;99.90;;;;;;5094035;28;20020;-66
2022/07/03 00:23:45;;;;;;;2.08;1.45;;;20.40;99.90;;;;;;5094652;28;20461;-67
2022/07/03 00:26:13;;;;;;;3.10;1.70;;;20.40;99.90;;;;;;5094626;28;20024;-67
2022/07/03 00:28:40;;;;;;;2.20;1.67;;;20.40;99.90;;;;;;5094484;28;20024;-67
2022/07/03 00:31:07;;;;;;;3.55;1.70;;;20.40;99.90;;;;;;5093609;28;20032;-67
2022/07/03 00:33:34;;;;;;;2.05;1.40;;;20.40;99.90;;;;;;5093362;28;20077;-65
2022/07/03 00:36:00;;;;;;;2.33;1.55;;;20.30;99.90;;;;;;5093320;28;20048;-66
2022/07/03 00:38:26;;;;;;;3.42;1.60;;;20.20;99.90;;;;;;5093276;28;20498;-66
2022/07/03 00:40:52;;;;;;;2.88;1.73;;;20.20;99.90;;;;;;5093294;28;20404;-67
2022/07/03 00:43:17;;;;;;;2.30;1.42;;;20.10;99.90;;;;;;5093460;28;20020;-66
2022/07/03 00:45:50;;;;;;;1.73;1.42;;;20.10;99.90;;;;;;5093381;28;20040;-67
2022/07/03 00:48:18;;;;;;;2.22;1.35;;;20.20;99.90;;;;;;5093163;28;20032;-67
2022/07/03 00:50:49;;;;;;;2.78;1.40;;;20.10;99.90;;;;;;5074673;28;20472;-68
2022/07/03 00:53:27;;;;;;;2.60;1.15;;;20.10;99.90;;;;;;5093066;28;20082;-67
2022/07/03 00:55:54;;;;;;;3.25;1.90;;;20.20;99.90;;;;;;5093327;28;20024;-65
2022/07/03 00:58:20;;;;;;;1.48;1.17;;;20.20;99.90;;;;;;5092890;28;20106;-67
2022/07/03 01:00:50;;;;;;;3.63;1.38;;;20.20;99.90;;;;;;5093286;28;20110;-65
2022/07/03 01:03:17;;;;;;;2.20;1.15;;;20.10;99.90;;;;;;5093127;28;20496;-66
2022/07/03 01:05:45;;;;;;;2.03;1.27;;;20.00;99.90;;;;;;5093234;28;20066;-66
2022/07/03 01:08:20;;;;;;;3.80;1.38;;;20.00;99.90;;;;;;5074605;28;20035;-67
2022/07/03 01:11:02;;;;;;;3.28;1.35;;;19.90;99.90;;;;;;5092673;28;20055;-67
2022/07/03 01:13:49;;;;;;;1.75;1.20;;;19.80;99.90;;;;;;5093021;28;20016;-67
2022/07/03 01:16:42;;;;;;;1.60;1.10;;;19.80;99.90;;;;;;5074879;28;20026;-66
2022/07/03 01:19:32;;;;;;;2.83;1.38;;;19.70;99.90;;;;;;5074548;28;20290;-66
2022/07/03 01:22:05;;;;;;;1.55;1.10;;;19.60;99.90;;;;;;5092869;28;20502;-65
2022/07/03 01:24:41;;;;;;;1.65;1.15;;;19.50;99.90;;;;;;5092849;28;20024;-67
2022/07/03 01:27:21;;;;;;;2.53;1.20;;;19.60;99.90;;;;;;5096794;28;20465;-66
2022/07/03 01:29:56;;;;;;;1.90;1.08;;;19.70;99.90;;;;;;5096431;28;20734;-65
2022/07/03 01:32:26;;;;;;;2.15;1.20;;;19.60;99.90;;;;;;5096583;28;20056;-66
2022/07/03 01:34:53;;;;;;;1.45;1.08;;;19.70;99.90;;;;;;5078390;28;20077;-66
2022/07/03 01:37:22;;;;;;;3.05;1.05;;;19.60;99.90;;;;;;5096935;28;20360;-67
2022/07/03 01:39:51;;;;;;;0.95;0.85;;;19.60;99.90;;;;;;5096265;28;20016;-66
2022/07/03 01:42:19;;;;;;;1.67;1.33;;;19.70;99.90;;;;;;5096334;28;20040;-66
2022/07/03 01:44:48;;;;;;;1.27;1.10;;;19.70;99.90;;;;;;5096959;28;20417;-65
2022/07/03 01:47:15;;;;;;;1.65;1.30;;;19.60;99.90;;;;;;5098510;28;20373;-66
2022/07/03 01:49:42;;;;;;;1.80;1.08;;;19.60;99.90;;;;;;5100705;28;20058;-66
2022/07/03 01:52:10;;;;;;;1.98;1.00;;;19.70;99.90;;;;;;5100937;28;20035;-65
2022/07/03 01:54:38;;;;;;;1.10;0.98;;;19.70;99.90;;;;;;5101217;28;20082;-66
2022/07/03 01:57:06;;;;;;;3.63;1.27;;;19.60;99.90;;;;;;5100137;28;20017;-66
2022/07/03 01:59:31;;;;;;;12.02;1.40;;;19.70;99.90;;;;;;5099604;28;20020;-66
2022/07/03 02:02:09;;;;;;;1.42;1.08;;;19.60;99.90;;;;;;5100056;28;20027;-66
2022/07/03 02:05:09;;;;;;;1.13;1.00;;;19.60;99.90;;;;;;5099541;28;20047;-67
2022/07/03 02:07:49;;;;;;;1.75;1.30;;;19.60;99.90;;;;;;5095786;28;20085;-66
2022/07/03 02:10:18;;;;;;;1.88;1.40;;;19.60;99.90;;;;;;5099164;28;20072;-66
2022/07/03 02:12:53;;;;;;;1.38;1.05;;;19.50;99.90;;;;;;5097994;28;20016;-66
2022/07/03 02:15:31;;;;;;;4.63;1.20;;;19.40;99.90;;;;;;5095931;28;20024;-66
2022/07/03 02:18:00;;;;;;;1.35;1.10;;;19.30;99.90;;;;;;5096084;28;20028;-65
2022/07/03 02:20:27;;;;;;;1.60;1.17;;;19.20;99.90;;;;;;5095872;28;20109;-66
2022/07/03 02:23:01;;;;;;;1.98;1.20;;;19.20;99.90;;;;;;5096116;28;20118;-62
2022/07/03 02:25:34;;;;;;;1.67;1.20;;;19.30;99.90;;;;;;5095378;28;20051;-62
2022/07/03 02:28:38;;;;;;;4.30;1.27;;;19.20;99.90;;;;;;5095246;28;20119;-63
2022/07/03 02:31:07;;;;;;;1.67;1.00;;;19.10;99.90;;;;;;5071969;28;20170;-62
2022/07/03 02:33:38;;;;;;;2.55;1.13;;;19.10;99.90;;;;;;5077158;28;20541;-61
2022/07/03 02:36:06;;;;;;;2.05;1.40;;;19.10;99.90;;;;;;5077720;28;20362;-61
2022/07/03 02:38:31;;;;;;;1.98;1.30;;;19.10;99.90;;;;;;5095108;28;20027;-62
2022/07/03 02:41:03;;;;;;;1.42;1.23;;;19.10;99.90;;;;;;5076944;28;20103;-62
2022/07/03 02:43:47;;;;;;;2.28;1.42;;;19.10;99.90;;;;;;5095104;28;20070;-62
2022/07/03 02:49:44;;;;;;;1.67;1.40;;;19.00;99.90;;;;;;5095079;28;20026;-62
2022/07/03 02:52:32;;;;;;;1.83;1.42;;;19.00;99.90;;;;;;5086606;28;20067;-62
2022/07/03 02:55:20;;;;;;;2.10;1.23;;;19.00;99.90;;;;;;5095359;28;20429;-62
2022/07/03 02:57:57;;;;;;;3.22;1.38;;;19.00;99.90;;;;;;5083669;28;20094;-62
2022/07/03 03:00:24;;;;;;;3.17;1.30;;;19.00;99.90;;;;;;5095200;28;20085;-60
2022/07/03 03:02:50;;;;;;;1.65;1.40;;;18.90;99.90;;;;;;5097942;28;20016;-63
2022/07/03 03:05:16;;;;;;;2.03;1.57;;;19.00;99.90;;;;;;5097750;28;20024;-62
2022/07/03 03:07:54;;;;;;;2.95;1.50;;;19.10;99.90;;;;;;5096360;28;20406;-63
2022/07/03 03:10:20;;;;;;;1.85;1.00;;;19.10;99.90;;;;;;5094936;28;20031;-62
2022/07/03 03:13:05;;;;;;;2.78;1.27;;;19.10;99.90;;;;;;5094412;28;20411;-62
2022/07/03 03:15:32;;;;;;;2.85;1.30;;;19.10;99.90;;;;;;5076330;28;20461;-62
2022/07/03 03:18:05;;;;;;;2.28;1.35;;;19.00;99.90;;;;;;5094001;28;20486;-62
2022/07/03 03:20:33;;;;;;;1.90;1.13;;;18.90;99.90;;;;;;5094477;28;20477;-62
2022/07/03 03:23:21;;;;;;;1.60;1.20;;;19.00;99.90;;;;;;5094112;28;20472;-62
2022/07/03 03:25:47;;;;;;;1.95;1.20;;;19.00;99.90;;;;;;5094834;28;20031;-63
2022/07/03 03:28:14;;;;;;;3.42;1.27;;;18.90;99.90;;;;;;5094180;28;20025;-61
2022/07/03 03:30:39;;;;;;;1.70;1.10;;;18.80;99.90;;;;;;5094073;28;20035;-62
2022/07/03 03:33:08;;;;;;;1.60;1.20;;;18.80;99.90;;;;;;5094462;28;20556;-62
2022/07/03 03:35:35;;;;;;;2.03;1.17;;;18.80;99.90;;;;;;5093976;28;20028;-63
2022/07/03 03:38:00;;;;;;;1.60;1.10;;;18.70;99.90;;;;;;5093802;28;20025;-64
2022/07/03 03:40:26;;;;;;;2.33;1.30;;;18.70;99.90;;;;;;5093770;28;20110;-62
2022/07/03 03:42:51;;;;;;;1.50;1.30;;;18.70;99.90;;;;;;5093797;28;20024;-62
2022/07/03 03:45:17;;;;;;;1.47;1.23;;;18.70;99.90;;;;;;5094126;28;20028;-63
2022/07/03 03:47:42;;;;;;;3.83;1.45;;;18.70;99.90;;;;;;5093740;28;20320;-63
2022/07/03 03:50:08;;;;;;;2.40;1.10;;;18.70;99.90;;;;;;5093749;28;20115;-62
2022/07/03 03:52:34;;;;;;;3.03;1.20;;;18.60;99.90;;;;;;5093764;28;20062;-62
2022/07/03 03:54:59;;;;;;;2.30;0.95;;;18.60;99.90;;;;;;5093762;28;20059;-62
2022/07/03 03:57:26;;;;;;;1.88;1.30;;;18.60;99.90;;;;;;5093798;28;20028;-62
2022/07/03 03:59:51;;;;;;;1.50;1.25;;;18.60;99.90;;;;;;5093520;28;20050;-62
2022/07/03 04:02:18;;;;;;;1.55;1.17;;;18.60;99.90;;;;;;5093625;28;20028;-62
2022/07/03 04:04:44;;;;;;;1.83;1.45;;;18.60;99.90;;;;;;5093429;28;20380;-62
2022/07/03 04:07:10;;;;;;;2.83;1.20;;;18.60;99.90;;;;;;5093533;28;20034;-63
2022/07/03 04:09:36;;;;;;;1.52;1.20;;;18.50;99.90;;;;;;5093200;28;20040;-62
2022/07/03 04:12:02;;;;;;;3.47;1.42;;;18.50;99.90;;;;;;5093297;28;20055;-62
2022/07/03 04:14:28;;;;;;;3.20;1.42;;;18.50;99.90;;;;;;5093200;28;20141;-62
2022/07/03 04:16:53;;;;;;;1.83;1.50;;;18.50;99.90;;;;;;5093236;28;20464;-63
2022/07/03 04:19:19;;;;;;;2.07;1.30;;;18.50;99.90;;;;;;5075158;28;20054;-62
2022/07/03 04:21:44;;;;;;;1.60;1.30;;;18.50;99.90;;;;;;5093704;28;20341;-62
2022/07/03 04:24:10;;;;;;;3.10;1.40;;;18.60;99.90;;;;;;5093606;28;20501;-63
2022/07/03 04:26:36;;;;;;;2.78;1.40;;;18.60;99.90;;;;;;5093225;28;20032;-62
2022/07/03 04:29:01;;;;;;;1.65;1.30;;;18.70;99.90;;;;;;5093218;28;20047;-63
2022/07/03 04:31:27;;;;;;;3.05;1.60;;;18.70;99.90;;;;;;5092938;28;20365;-62
2022/07/03 04:33:52;;;;;;;3.85;1.25;;;18.70;99.90;;;;;;5093353;28;20366;-62
2022/07/03 04:36:18;;;;;;;1.58;1.20;;;18.70;99.90;;;;;;5093094;28;20393;-63
2022/07/03 04:38:44;;;;;;;2.03;1.42;;;18.70;99.90;;;;;;5093310;28;20074;-63
2022/07/03 04:41:09;;;;;;;;;;;18.80;99.90;;;;;;5093805;28;20039;-62
2022/07/03 04:43:38;;;;;;;2.08;1.30;;;18.80;99.90;;;;;;5093129;28;19911;-63
2022/07/03 04:46:04;;;;;;;3.03;1.27;;;18.80;99.90;;;;;;5093070;28;20039;-62
2022/07/03 04:48:30;;;;;;;1.55;1.35;;;18.90;99.90;;;;;;5093019;28;20028;-62
2022/07/03 04:50:56;;;;;;;2.20;1.27;;;18.90;99.90;;;;;;5093281;28;20061;-62
2022/07/03 04:53:21;;;;;;;;;;;18.90;99.90;;;;;;5093333;28;20090;-61
2022/07/03 04:55:47;;;;;;;3.13;1.77;;;19.00;99.90;;;;;;5092945;28;19912;-62
2022/07/03 04:58:13;;;;;;;1.60;1.10;;;19.00;99.90;;;;;;5092782;28;20091;-62
2022/07/03 05:00:40;;;;;;;2.72;1.35;;;19.00;99.90;;;;;;5093053;28;20515;-63
2022/07/03 05:03:06;;;;;;;3.13;1.40;;;19.00;99.90;;;;;;5097026;28;20024;-63
2022/07/03 05:05:32;;;;;;;2.00;1.50;;;19.10;99.90;;;;;;5097191;28;20107;-63
2022/07/03 05:07:58;;;;;;;2.10;1.60;;;19.20;99.90;;;;;;5096511;28;20071;-62
2022/07/03 05:10:23;;;;;;;2.42;1.33;;;19.20;99.90;;;;;;5096907;28;20032;-63
2022/07/03 05:12:49;;;;;;;1.75;1.48;;;19.20;99.90;;;;;;5096885;28;20058;-63
2022/07/03 05:15:15;;;;;;;3.33;1.40;;;19.30;99.90;;;;;;5096922;28;20193;-63
2022/07/03 05:17:40;;;;;;;1.63;1.40;;;19.30;99.90;;;;;;5097031;28;20104;-64
2022/07/03 05:20:25;;;;;;;2.00;1.55;;;19.30;99.90;;;;;;5078459;28;20172;-63
2022/07/03 05:22:52;;;;;;;1.90;1.58;;;19.30;99.90;;;;;;5096987;28;20020;-63
2022/07/03 05:25:17;;;;;;;3.92;1.80;;;19.30;99.90;;;;;;5096794;28;20046;-62
2022/07/03 05:27:43;;;;;;;2.45;1.55;;;19.30;99.90;;;;;;5096479;28;20044;-63
2022/07/03 05:30:09;;;;;;;2.47;1.17;;;19.40;99.90;;;;;;5096475;28;20465;-62
2022/07/03 05:32:35;;;;;;;2.65;1.52;;;19.40;99.90;;;;;;5096921;28;20028;-63
2022/07/03 05:35:01;;;;;;;2.72;1.40;;;19.50;99.90;;;;;;5078152;28;20381;-62
2022/07/03 05:37:26;;;;;;;1.58;1.42;;;19.60;99.90;;;;;;5096348;28;20101;-67
2022/07/03 05:39:52;;;;;;;2.33;1.40;;;19.60;99.90;;;;;;5096233;28;20031;-67
2022/07/03 05:42:18;;;;;;;1.92;1.35;;;19.60;99.90;;;;;;5096381;28;20563;-67
2022/07/03 05:44:43;;;;;;;2.10;1.63;;;19.60;99.90;;;;;;5078853;28;20020;-66
2022/07/03 05:47:09;;;;;;;1.67;1.13;;;19.70;99.90;;;;;;5096824;28;20024;-67
2022/07/03 05:49:34;;;;;;;2.42;1.42;;;19.80;99.90;;;;;;5097108;28;20115;-67
2022/07/03 05:52:00;;;;;;;1.65;1.23;;;19.90;99.90;;;;;;5078054;28;20044;-67
2022/07/03 05:54:26;;;;;;;1.98;1.30;;;19.90;99.90;;;;;;5077729;28;20393;-67
2022/07/03 05:56:51;;;;;;;1.63;1.38;;;20.00;99.90;;;;;;5077906;28;20020;-67
2022/07/03 05:59:17;;;;;;;1.92;1.48;;;20.00;99.90;;;;;;5077649;28;20024;-66
2022/07/03 06:01:42;;;;;;;2.50;1.30;;;20.10;99.90;;;;;;5095861;28;20146;-67
2022/07/03 06:04:08;;;;;;;1.38;1.02;;;20.10;99.90;;;;;;5095810;28;20491;-67
2022/07/03 06:06:33;;;;;;;3.00;1.40;;;20.30;99.90;;;;;;5095713;28;20058;-68
2022/07/03 06:08:59;;;;;;;3.70;1.10;;;20.30;99.90;;;;;;5095532;28;20048;-68
2022/07/03 06:11:25;;;;;;;2.35;1.35;;;20.40;99.90;;;;;;5095139;28;20097;-69
2022/07/03 06:13:50;;;;;;;2.45;1.20;;;20.50;99.90;;;;;;5095740;28;20024;-68
2022/07/03 06:16:16;;;;;;;1.63;1.30;;;20.50;99.90;;;;;;5095837;28;20379;-67
2022/07/03 06:18:42;;;;;;;2.63;1.13;;;20.60;99.90;;;;;;5095792;28;20188;-69
2022/07/03 06:21:07;;;;;;;1.95;1.27;;;20.60;99.90;;;;;;5095779;28;20027;-67
2022/07/03 06:23:33;;;;;;;3.92;1.88;;;20.60;99.90;;;;;;5095679;28;20036;-69
2022/07/03 06:26:00;;;;;;;1.30;1.10;;;20.70;99.90;;;;;;5095543;28;20388;-68
2022/07/03 06:28:25;;;;;;;2.13;1.40;;;20.90;99.90;;;;;;5095478;28;20028;-69
2022/07/03 06:30:51;;;;;;;1.45;1.20;;;20.90;99.90;;;;;;5095296;28;20038;-67
2022/07/03 06:33:17;;;;;;;1.63;1.23;;;20.90;99.90;;;;;;5095342;28;20030;-67
2022/07/03 06:35:43;;;;;;;;;;;21.00;99.90;;;;;;5095717;28;20527;-68
2022/07/03 06:38:08;;;;;;;3.08;0.95;;;21.10;99.90;;;;;;5095310;28;19908;-68
2022/07/03 06:40:34;;;;;;;2.15;1.23;;;21.20;99.90;;;;;;5095381;28;20028;-68
2022/07/03 06:43:00;;;;;;;2.08;1.23;;;21.30;99.90;;;;;;5095252;28;20076;-68
2022/07/03 06:45:25;;;;;;;1.13;1.00;;;21.30;99.90;;;;;;5095401;28;20468;-67
2022/07/03 06:47:51;;;;;;;1.80;1.20;;;21.40;99.90;;;;;;5095060;28;20028;-67
2022/07/03 06:50:17;;;;;;;1.10;1.00;;;21.50;99.90;;;;;;5095138;28;20031;-66
2022/07/03 06:52:42;;;;;;;1.33;1.00;;;21.60;99.90;;;;;;5094998;28;20020;-67
2022/07/03 06:55:08;;;;;;;1.52;1.38;;;21.70;99.90;;;;;;5076891;28;20491;-67
2022/07/03 06:57:34;;;;;;;1.30;1.00;;;21.70;99.90;;;;;;5094962;28;20031;-67
2022/07/03 06:59:59;;;;;;;2.08;1.00;;;21.70;99.90;;;;;;5094790;28;20052;-68
2022/07/03 07:02:25;;;;;;;1.35;1.15;;;21.80;99.90;;;;;;5094852;28;20043;-68
2022/07/03 07:04:50;;;;;;;2.15;1.45;;;21.90;99.90;;;;;;5094693;28;20472;-67
2022/07/03 07:07:16;;;;;;;1.48;1.30;;;21.90;99.90;;;;;;5094823;28;20379;-67
2022/07/03 07:09:41;;;;;;;3.35;1.20;;;22.00;99.90;;;;;;5094452;28;20108;-67
2022/07/03 07:12:07;;;;;;;1.63;1.10;;;22.00;99.90;;;;;;5094812;28;20028;-67
2022/07/03 07:14:33;;;;;;;2.17;0.93;;;22.20;99.90;;;;;;5076309;28;20062;-64
2022/07/03 07:16:58;;;;;;;1.48;0.85;;;22.30;99.90;;;;;;5076220;28;20081;-64
2022/07/03 07:19:24;;;;;;;2.03;1.10;;;22.40;99.90;;;;;;5094369;28;20099;-64
2022/07/03 07:21:49;;;;;;;2.88;0.90;;;22.50;99.90;;;;;;5094471;28;20020;-65
2022/07/03 07:24:15;;;;;;;3.60;1.10;;;22.60;99.90;;;;;;5075466;28;20540;-65
2022/07/03 07:26:41;;;;;;;1.48;1.00;;;22.60;99.90;;;;;;5094067;28;20533;-64
2022/07/03 07:29:06;;;;;;;4.13;0.98;;;22.70;99.90;;;;;;5094266;28;20122;-64
2022/07/03 07:31:32;;;;;;;2.58;1.00;;;22.80;99.90;;;;;;5094528;28;20033;-64
2022/07/03 07:33:58;;;;;;;2.45;1.00;;;22.90;99.90;;;;;;5094543;28;20024;-65
2022/07/03 07:36:23;;;;;;;;;;;23.00;99.90;;;;;;5076594;28;20028;-65
2022/07/03 07:38:49;;;;;;;1.70;1.25;;;23.10;99.90;;;;;;5093892;28;19904;-66
2022/07/03 07:41:14;;;;;;;3.13;0.90;;;23.20;99.90;;;;;;5075687;28;20042;-66
2022/07/03 07:43:40;;;;;;;2.50;0.70;;;23.30;99.90;;;;;;5093901;28;20032;-67
2022/07/03 07:46:05;;;;;;;2.00;0.70;;;23.40;99.00;;;;;;5094185;28;20068;-64
2022/07/03 07:48:33;;;;;;;;;;;23.70;98.60;;;;;;5094707;28;20081;-65
2022/07/03 07:50:59;;;;;;;1.73;0.90;;;24.70;96.90;;;;;;5094266;28;19994;-64
2022/07/03 07:53:24;;;;;;;;;;;25.90;95.00;;;;;;5075864;28;20059;-63
2022/07/03 07:55:50;;;;;;;1.20;0.95;;;26.50;93.60;;;;;;5075551;28;19951;-64
2022/07/03 07:58:15;;;;;;;1.55;0.70;;;26.70;93.00;;;;;;5094274;28;20024;-64
2022/07/03 08:05:35;;;;;;;1.00;0.70;;;26.40;92.70;;;;;;5093819;28;20536;-63
2022/07/03 08:06:11;;;;;;;1.92;0.93;;;25.80;93.40;;;;;;5094136;28;20031;-64
2022/07/03 08:08:36;;;;;;;3.03;0.77;;;25.70;93.80;;;;;;5093687;28;20057;-64
2022/07/03 08:11:02;;;;;;;3.25;0.70;;;26.00;93.80;;;;;;5075424;28;20028;-64
2022/07/03 08:13:28;;;;;;;0.80;0.80;;;27.40;92.90;;;;;;5093655;28;20028;-64
2022/07/03 08:15:53;;;;;;;1.95;1.20;;;29.10;90.50;;;;;;5075471;28;20016;-64
2022/07/03 08:18:19;;;;;;;2.83;0.90;;;30.40;87.00;;;;;;5093472;28;20024;-65
2022/07/03 08:20:44;;;;;;;2.72;1.20;;;32.00;83.60;;;;;;5093404;28;20032;-64
2022/07/03 08:23:10;;;;;;;1.50;0.85;;;33.10;79.00;;;;;;5093605;28;20031;-64
2022/07/03 08:25:36;;;;;;;14.00;1.60;;;33.80;75.90;;;;;;5093425;28;20028;-65
2022/07/03 08:28:01;;;;;;;1.77;0.80;;;34.50;73.40;;;;;;5093164;28;20496;-64
2022/07/03 08:30:27;;;;;;;2.00;0.88;;;35.70;69.60;;;;;;5093160;28;20024;-64
2022/07/03 08:32:55;;;;;;;2.30;0.73;;;35.90;67.00;;;;;;5075787;28;20115;-66
2022/07/03 08:35:21;;;;;;;2.92;0.70;;;36.40;64.30;;;;;;5093268;28;20020;-66
2022/07/03 08:37:47;;;;;;;2.80;1.02;;;36.30;63.20;;;;;;5093391;28;20031;-68
2022/07/03 08:40:17;;;;;;;2.45;1.13;;;36.40;62.60;;;;;;5093337;28;20103;-69
2022/07/03 08:42:54;;;;;;;1.58;0.90;;;36.90;61.60;;;;;;5093069;28;20028;-67
2022/07/03 08:45:21;;;;;;;1.60;0.70;;;37.60;60.70;;;;;;5093336;28;20039;-69
2022/07/03 08:47:48;;;;;;;1.40;1.00;;;38.80;57.50;;;;;;5093039;28;20024;-67
2022/07/03 08:50:16;;;;;;;2.50;1.00;;;38.60;56.20;;;;;;5093198;28;20448;-66
2022/07/03 08:52:42;;;;;;;1.63;0.90;;;39.20;54.90;;;;;;5092790;28;20150;-69
2022/07/03 08:55:09;;;;;;;1.80;0.77;;;38.50;54.20;;;;;;5092811;28;20023;-69
2022/07/03 08:57:40;;;;;;;0.90;0.70;;;38.20;54.50;;;;;;5093033;28;20027;-68
2022/07/03 09:00:11;;;;;;;3.08;1.08;;;38.10;54.00;;;;;;5093219;28;20031;-69
2022/07/03 09:02:41;;;;;;;1.08;0.90;;;38.10;54.10;;;;;;5075283;28;20020;-70
2022/07/03 09:05:08;;;;;;;2.42;0.90;;;38.10;54.20;;;;;;5092818;28;20037;-69
2022/07/03 09:07:38;;;;;;;1.30;0.80;;;38.00;54.00;;;;;;5092883;28;20035;-68
2022/07/03 09:10:07;;;;;;;1.38;0.80;;;38.60;53.40;;;;;;5074911;28;20036;-69
2022/07/03 09:12:32;;;;;;;2.08;0.90;;;39.50;52.60;;;;;;5092581;28;20099;-69
2022/07/03 09:14:59;;;;;;;1.75;0.88;;;40.30;51.50;;;;;;5092676;28;20048;-67
2022/07/03 09:17:25;;;;;;;2.40;0.90;;;39.30;50.70;;;;;;5092968;28;20025;-68
2022/07/03 09:19:50;;;;;;;3.38;1.20;;;38.90;51.50;;;;;;5092696;28;20495;-69
2022/07/03 09:22:23;;;;;;;3.40;1.02;;;38.60;51.80;;;;;;5093567;28;20029;-68
2022/07/03 09:24:51;;;;;;;1.27;1.17;;;38.90;52.10;;;;;;5074476;28;20027;-68
2022/07/03 09:27:19;;;;;;;1.50;0.80;;;39.20;51.50;;;;;;5092565;28;20055;-69
2022/07/03 09:30:01;;;;;;;1.52;0.98;;;39.20;51.10;;;;;;5092392;28;20020;-67
2022/07/03 09:32:41;;;;;;;1.75;0.90;;;38.60;52.10;;;;;;5092750;28;20020;-66
2022/07/03 09:35:26;;;;;;;3.15;1.20;;;38.70;52.70;;;;;;5092894;28;20027;-67
2022/07/03 09:38:02;;;;;;;1.00;0.70;;;39.30;52.50;;;;;;5092806;28;20017;-67
2022/07/03 09:40:56;;;;;;;1.35;0.98;;;40.50;51.30;;;;;;5092305;28;20020;-67
2022/07/03 09:43:29;;;;;;;1.60;0.90;;;40.80;50.70;;;;;;5092826;28;20384;-67
2022/07/03 09:45:57;;;;;;;2.50;0.80;;;40.30;50.90;;;;;;5074405;28;20024;-67
2022/07/03 09:48:39;;;;;;;2.25;1.00;;;40.50;50.60;;;;;;5095600;28;20020;-66
2022/07/03 09:51:18;;;;;;;1.23;0.73;;;39.80;50.00;;;;;;5096179;28;20020;-67
2022/07/03 09:53:52;;;;;;;1.63;1.10;;;40.10;49.80;;;;;;5096417;28;20356;-66
2022/07/03 09:56:23;;;;;;;3.67;1.17;;;40.40;49.80;;;;;;5096169;28;20077;-67
2022/07/03 09:59:13;;;;;;;1.42;0.80;;;40.80;49.60;;;;;;5096414;28;20383;-67
2022/07/03 10:01:43;;;;;;;1.15;0.70;;;40.80;49.10;;;;;;5077771;28;20024;-67
2022/07/03 10:04:20;;;;;;;1.13;0.70;;;40.80;48.50;;;;;;5096373;28;20020;-66
2022/07/03 10:06:50;;;;;;;1.13;0.65;;;40.50;48.30;;;;;;5095983;28;20477;-66
2022/07/03 10:09:17;;;;;;;1.77;0.80;;;41.10;47.40;;;;;;5095932;28;20062;-66
2022/07/03 10:11:47;;;;;;;2.40;1.02;;;41.40;46.80;;;;;;5096228;28;20024;-66
2022/07/03 10:14:18;;;;;;;1.92;0.80;;;41.10;47.10;;;;;;5096266;28;20409;-66
2022/07/03 10:16:44;;;;;;;1.15;0.80;;;41.10;46.70;;;;;;5078225;28;20376;-66
2022/07/03 10:19:21;;;;;;;1.25;0.88;;;41.00;45.80;;;;;;5095874;28;20031;-66
2022/07/03 10:22:00;;;;;;;1.45;0.70;;;40.40;46.30;;;;;;5077644;28;20036;-66
2022/07/03 10:24:28;;;;;;;1.23;0.80;;;40.20;47.00;;;;;;5077842;28;20130;-68
2022/07/03 10:26:55;;;;;;;2.83;0.80;;;39.90;47.60;;;;;;5096067;28;20398;-67
2022/07/03 10:29:23;;;;;;;2.58;0.82;;;39.60;47.20;;;;;;5095549;28;20024;-67
2022/07/03 10:31:49;;;;;;;1.10;0.63;;;39.20;47.10;;;;;;5096123;28;20137;-67
2022/07/03 10:34:24;;;;;;;2.90;0.82;;;38.90;49.20;;;;;;5095868;28;20036;-66
2022/07/03 10:37:00;;;;;;;;;;;39.30;48.10;;;;;;5096646;28;20028;-66
2022/07/03 10:39:53;;;;;;;3.55;0.80;;;39.30;47.90;;;;;;5095880;28;19918;-67
2022/07/03 10:45:19;;;;;;;0.93;0.77;;;39.70;48.60;;;;;;5095277;28;20444;-69
2022/07/03 10:47:49;;;;;;;1.75;0.90;;;40.60;49.10;;;;;;5096607;28;20036;-69
2022/07/03 10:50:17;;;;;;;1.98;0.90;;;40.50;47.70;;;;;;5095783;28;20028;-69
2022/07/03 10:52:43;;;;;;;1.95;0.90;;;40.40;47.90;;;;;;5076784;28;20031;-69
2022/07/03 10:55:10;;;;;;;5.85;1.15;;;40.30;47.50;;;;;;5094946;28;20078;-69
2022/07/03 10:57:37;;;;;;;3.08;1.00;;;41.00;47.40;;;;;;5094722;28;20476;-69
2022/07/03 11:00:08;;;;;;;4.38;0.95;;;41.70;46.80;;;;;;5093751;28;20024;-68
2022/07/03 11:02:35;;;;;;;2.28;0.80;;;40.30;46.30;;;;;;5095753;28;20084;-69
2022/07/03 11:05:00;;;;;;;2.65;0.80;;;39.50;47.20;;;;;;5095761;28;20016;-69
2022/07/03 11:07:53;;;;;;;0.80;0.65;;;39.40;47.20;;;;;;5077049;28;20077;-69
2022/07/03 11:10:18;;;;;;;1.23;0.70;;;39.40;47.30;;;;;;5095981;28;20120;-69
2022/07/03 11:12:56;;;;;;;1.85;0.80;;;39.40;47.80;;;;;;5095061;28;20020;-69
2022/07/03 11:15:32;;;;;;;1.70;1.00;;;38.40;47.90;;;;;;5095095;28;20081;-68
2022/07/03 11:18:12;;;;;;;2.80;0.98;;;36.90;49.70;;;;;;5095062;28;20488;-69
2022/07/03 11:20:43;;;;;;;2.45;0.70;;;35.90;50.70;;;;;;5094904;28;20042;-69
2022/07/03 11:23:27;;;;;;;1.63;0.68;;;35.00;50.90;;;;;;5094417;28;20020;-69
2022/07/03 11:25:59;;;;;;;2.03;0.70;;;33.80;51.90;;;;;;5094578;28;20540;-69
2022/07/03 11:28:33;;;;;;;0.90;0.68;;;32.90;53.10;;;;;;5094590;28;20032;-69
2022/07/03 11:33:49;;;;;;;1.65;1.05;;;31.60;54.20;;;;;;5096123;28;20111;-68
2022/07/03 11:36:15;;;;;;;2.70;0.80;;;31.00;56.20;;;;;;5097342;28;20052;-69
2022/07/03 11:38:41;;;;;;;1.85;0.65;;;30.80;56.80;;;;;;5078288;28;20396;-68
2022/07/03 11:41:09;;;;;;;1.55;0.70;;;30.70;56.90;;;;;;5096449;28;20032;-69
2022/07/03 11:43:34;;;;;;;2.05;0.52;;;30.50;56.70;;;;;;5096114;28;20031;-67
2022/07/03 11:46:01;;;;;;;1.92;0.68;;;30.20;57.00;;;;;;5078509;28;20020;-68
2022/07/03 11:48:27;;;;;;;1.17;0.80;;;30.10;57.70;;;;;;5078937;28;20055;-66
2022/07/03 11:51:02;;;;;;;1.73;0.50;;;30.10;57.60;;;;;;5079368;28;20488;-68
2022/07/03 11:53:33;;;;;;;1.25;0.57;;;30.20;57.60;;;;;;5096951;28;20024;-69
2022/07/03 11:56:02;;;;;;;2.63;0.88;;;30.10;58.10;;;;;;5079367;28;20020;-69
2022/07/03 11:58:51;;;;;;;0.85;0.70;;;30.20;57.60;;;;;;5096936;28;20024;-68
2022/07/03 12:01:26;;;;;;;1.80;0.85;;;30.10;57.50;;;;;;5097142;28;20151;-68
2022/07/03 12:04:08;;;;;;;1.90;0.90;;;30.20;57.50;;;;;;5095355;28;20027;-69
2022/07/03 12:06:49;;;;;;;2.55;0.88;;;30.20;57.60;;;;;;5094822;28;20129;-69
2022/07/03 12:09:29;;;;;;;1.60;0.60;;;30.10;57.50;;;;;;5094494;28;20077;-68
2022/07/03 12:12:00;;;;;;;2.55;0.95;;;30.10;57.50;;;;;;5095516;28;20032;-69
2022/07/03 12:14:46;;;;;;;1.50;0.85;;;30.00;57.70;;;;;;5094617;28;20028;-68
2022/07/03 12:17:21;;;;;;;2.60;0.90;;;30.00;57.90;;;;;;5093465;28;20074;-68
2022/07/03 12:19:50;;;;;;;6.18;0.80;;;29.90;58.00;;;;;;5093328;28;20055;-68
2022/07/03 12:22:26;;;;;;;1.80;0.68;;;29.80;58.40;;;;;;5075233;28;20127;-69
2022/07/03 12:24:56;;;;;;;1.80;0.70;;;29.70;58.50;;;;;;5075666;28;20032;-69
2022/07/03 12:27:22;;;;;;;4.28;1.15;;;29.60;58.90;;;;;;5093144;28;20024;-69
2022/07/03 12:29:48;;;;;;;1.65;0.80;;;29.70;59.10;;;;;;5092918;28;20421;-68
2022/07/03 12:32:14;;;;;;;2.47;0.80;;;29.80;59.30;;;;;;5075097;28;20073;-68
2022/07/03 12:34:40;;;;;;;0.93;0.70;;;29.90;59.50;;;;;;5074841;28;20448;-68
2022/07/03 12:37:06;;;;;;;2.03;0.70;;;29.80;59.30;;;;;;5074922;28;20028;-68
2022/07/03 12:39:45;;;;;;;1.08;0.60;;;29.70;59.10;;;;;;5074748;28;20039;-68
2022/07/03 12:42:15;;;;;;;3.35;0.75;;;29.80;59.60;;;;;;5093173;28;20024;-68
2022/07/03 12:44:41;;;;;;;0.68;0.50;;;29.90;60.00;;;;;;5093132;28;20031;-68
2022/07/03 12:47:07;;;;;;;1.90;1.33;;;30.00;59.30;;;;;;5093848;28;20400;-68
2022/07/03 12:49:32;;;;;;;1.70;0.70;;;30.00;59.40;;;;;;5093742;28;20032;-68
2022/07/03 12:51:58;;;;;;;2.20;0.90;;;29.90;59.50;;;;;;5093211;28;20039;-68
2022/07/03 12:54:37;;;;;;;1.55;0.70;;;30.10;60.00;;;;;;5092828;28;20032;-68
2022/07/03 13:00:21;;;;;;;2.53;2.00;;;29.80;60.60;;;;;;5093773;28;20487;-69
2022/07/03 13:02:48;;;;;;;0.93;0.80;;;29.90;60.50;;;;;;5090509;28;20036;-68
2022/07/03 13:05:24;;;;;;;2.33;0.70;;;30.00;59.90;;;;;;5092700;28;20031;-67
2022/07/03 13:07:55;;;;;;;2.78;0.80;;;30.10;60.00;;;;;;5093074;28;20157;-67
2022/07/03 13:10:22;;;;;;;0.90;0.70;;;30.20;60.10;;;;;;5093076;28;20493;-67
2022/07/03 13:12:53;;;;;;;1.70;0.80;;;30.20;59.60;;;;;;5092682;28;20024;-68
2022/07/03 13:15:20;;;;;;;2.15;1.10;;;30.30;59.50;;;;;;5074304;28;20024;-67